GMMX/RAK METAR and TAF weather

Enter ICAO airport designator
Station Type Date Time Source
GMMX METAR 2019/08/19 01:30 UTC NOAA

GMMX 190130Z 00000KT CAVOK 26/09 Q1016 NOSIG


Station Type Date Time Source
GMMX Decoded METAR 2019/08/19 01:30 UTC NOAA

Station name not available
Aug 18, 2019 - 09:30 PM EDT / 2019.08.19 0130 UTC
Wind: Calm:0
Visibility: greater than 7 mile(s):0
Temperature: 78 F (26 C)
Dew Point: 48 F (9 C)
Relative Humidity: 34%
Pressure (altimeter): 30.00 in. Hg (1016 hPa)
ob: GMMX 190130Z 00000KT CAVOK 26/09 Q1016 NOSIG
cycle: 1

Station Type Date Time Source
GMMX TAF 2019/08/18 18:24 UTC NOAA

TAF GMMX 181700Z 1818/1924 04006KT 8000
TEMPO 1818/1822 34016KT SCT100

Example: see airport list